Time;durP1;ratioP1;P1;durP2;ratioP2;P2;SDS_P1;SDS_P2;PMS_P1;PMS_P2;Temp;Humidity;BMP_temperature;BMP_pressure;BME280_temperature;BME280_humidity;BME280_pressure;Samples;Min_cycle;Max_cycle;Signal;HPM_P1;HPM_P2
2023/06/14 00:00:30;;;;;;;24.30;10.50;;;;;;;12.70;100.00;98886.98;135410;1281;22536;-72
2023/06/14 00:03:53;;;;;;;23.90;11.00;;;;;;;12.66;100.00;98885.98;135377;1281;22523;-62
2023/06/14 00:06:56;;;;;;;24.80;12.10;;;;;;;12.73;100.00;98887.66;135405;1281;22654;-64
2023/06/14 00:09:59;;;;;;;28.10;11.80;;;;;;;12.78;100.00;98887.08;135418;1281;22539;-66
2023/06/14 00:13:01;;;;;;;;;;;;;;;12.80;100.00;98883.63;135451;1281;22518;-69
2023/06/14 00:16:04;;;;;;;25.60;10.80;;;;;;;12.81;100.00;98880.95;135759;1278;22533;-69
2023/06/14 00:19:06;;;;;;;25.20;11.10;;;;;;;12.79;100.00;98877.20;135725;1278;24948;-67
2023/06/14 00:22:09;;;;;;;22.80;10.30;;;;;;;12.79;100.00;98872.80;135766;1278;22526;-68
2023/06/14 00:25:11;;;;;;;23.80;10.70;;;;;;;12.84;100.00;98872.79;135778;1278;25346;-69
2023/06/14 00:28:14;;;;;;;;;;;;;;;12.93;100.00;98873.63;135696;1278;22541;-68
2023/06/14 00:31:16;;;;;;;29.30;12.20;;;;;;;12.91;100.00;98871.86;135745;1278;23231;-69
2023/06/14 00:34:19;;;;;;;;;;;;;;;12.90;100.00;98868.23;135785;1278;24368;-72
2023/06/14 00:37:21;;;;;;;29.50;12.30;;;;;;;12.83;100.00;98868.33;135747;1278;22567;-72
2023/06/14 00:40:24;;;;;;;;;;;;;;;12.82;100.00;98861.05;135748;1278;22508;-70
2023/06/14 00:43:26;;;;;;;23.10;10.80;;;;;;;12.79;100.00;98863.55;135759;1278;22649;-71
2023/06/14 00:46:28;;;;;;;;;;;;;;;12.73;100.00;98863.42;135781;1278;22617;-71
2023/06/14 00:49:31;;;;;;;23.90;10.60;;;;;;;12.76;100.00;98867.39;135754;1278;22551;-71
2023/06/14 00:52:34;;;;;;;;;;;;;;;12.79;100.00;98869.84;135769;1278;22630;-72
2023/06/14 00:55:36;;;;;;;26.90;12.00;;;;;;;12.84;100.00;98873.52;135782;1278;22646;-70
2023/06/14 00:58:39;;;;;;;;;;;;;;;12.79;100.00;98870.33;135751;1278;22511;-71
2023/06/14 01:01:41;;;;;;;26.60;12.30;;;;;;;12.79;100.00;98865.59;135724;1278;22534;-69
2023/06/14 01:04:45;;;;;;;;;;;;;;;12.79;100.00;98863.72;135720;1278;22548;-69
2023/06/14 01:07:48;;;;;;;25.80;11.00;;;;;;;12.72;100.00;98863.47;135731;1278;22531;-68
2023/06/14 01:10:52;;;;;;;24.90;11.40;;;;;;;12.61;100.00;98861.56;135752;1278;22629;-69
2023/06/14 01:13:55;;;;;;;24.80;10.80;;;;;;;12.47;100.00;98857.08;135730;1278;22577;-64
2023/06/14 01:17:00;;;;;;;;;;;;;;;12.45;100.00;98854.79;135769;1278;24350;-63
2023/06/14 01:20:09;;;;;;;25.10;11.40;;;;;;;12.36;100.00;98857.35;135745;1278;22531;-70
2023/06/14 01:23:12;;;;;;;26.80;11.60;;;;;;;12.22;100.00;98855.65;135735;1278;22547;-69
2023/06/14 01:26:15;;;;;;;27.00;12.60;;;;;;;12.15;100.00;98856.44;135798;1278;22535;-69
2023/06/14 01:29:18;;;;;;;26.10;12.10;;;;;;;12.14;100.00;98850.02;135759;1278;22571;-67
2023/06/14 01:32:21;;;;;;;25.70;11.30;;;;;;;12.20;100.00;98848.78;135735;1278;22526;-68
2023/06/14 01:35:24;;;;;;;;;;;;;;;12.21;100.00;98847.67;135748;1278;25443;-68
2023/06/14 01:38:26;;;;;;;25.90;11.60;;;;;;;12.20;100.00;98847.20;135758;1278;22530;-70
2023/06/14 01:41:29;;;;;;;25.00;11.00;;;;;;;12.26;100.00;98843.60;135755;1278;22541;-69
2023/06/14 01:44:31;;;;;;;27.00;11.40;;;;;;;12.19;100.00;98843.92;135746;1259;22544;-72
2023/06/14 01:47:34;;;;;;;25.60;11.10;;;;;;;12.05;100.00;98846.29;135737;1259;22534;-68
2023/06/14 01:50:36;;;;;;;;;;;;;;;11.99;100.00;98844.75;135814;1278;24364;-71
2023/06/14 01:53:38;;;;;;;29.20;12.00;;;;;;;12.00;100.00;98840.66;135768;1278;22530;-69
2023/06/14 01:56:41;;;;;;;25.20;11.10;;;;;;;11.96;100.00;98842.09;135729;1278;22548;-71
2023/06/14 01:59:48;;;;;;;24.80;10.90;;;;;;;11.91;100.00;98842.58;135735;1278;24487;-68
2023/06/14 02:02:50;;;;;;;26.30;10.80;;;;;;;11.92;100.00;98841.45;135704;1259;22520;-68
2023/06/14 02:05:54;;;;;;;;;;;;;;;11.90;100.00;98842.27;135740;1278;22493;-67
2023/06/14 02:08:56;;;;;;;28.40;10.90;;;;;;;11.96;100.00;98835.64;135736;1259;22532;-68
2023/06/14 02:11:58;;;;;;;;;;;;;;;11.87;100.00;98834.41;135783;1267;22523;-70
2023/06/14 02:15:01;;;;;;;26.20;10.40;;;;;;;11.84;100.00;98831.85;135797;1278;22526;-68
2023/06/14 02:18:03;;;;;;;;;;;;;;;11.89;100.00;98832.23;135739;1278;22504;-68
2023/06/14 02:21:06;;;;;;;26.80;11.00;;;;;;;11.93;100.00;98834.06;135740;1278;22532;-63
2023/06/14 02:24:08;;;;;;;;;;;;;;;11.94;100.00;98840.16;135773;1278;26583;-62
2023/06/14 02:27:11;;;;;;;26.20;9.90;;;;;;;11.98;100.00;98850.27;135768;1278;22521;-64
2023/06/14 02:30:13;;;;;;;;;;;;;;;11.99;100.00;98857.34;135751;1278;22526;-68
2023/06/14 02:33:17;;;;;;;26.20;9.60;;;;;;;11.97;100.00;98858.36;135756;1278;22549;-69
2023/06/14 02:36:20;;;;;;;26.20;9.90;;;;;;;12.00;100.00;98859.92;135784;1278;22530;-68
2023/06/14 02:39:23;;;;;;;24.80;9.00;;;;;;;12.03;100.00;98861.30;135785;1278;22524;-68
2023/06/14 02:42:25;;;;;;;24.60;9.20;;;;;;;12.14;100.00;98859.85;135730;1278;22516;-69
2023/06/14 02:45:27;;;;;;;;;;;;;;;12.22;100.00;98856.70;135749;1278;22627;-71
2023/06/14 02:48:30;;;;;;;23.70;9.60;;;;;;;12.36;100.00;98853.33;135778;1278;22543;-69
2023/06/14 02:51:32;;;;;;;25.80;10.50;;;;;;;12.31;100.00;98852.92;135784;1259;22540;-72
2023/06/14 02:54:35;;;;;;;;;;;;;;;12.36;100.00;98850.34;135798;1278;22507;-70
2023/06/14 02:57:38;;;;;;;25.10;10.90;;;;;;;12.35;100.00;98849.86;135772;1278;24379;-70
2023/06/14 03:00:42;;;;;;;24.50;9.90;;;;;;;12.41;100.00;98847.55;135750;1278;22531;-68
2023/06/14 03:03:44;;;;;;;24.70;10.00;;;;;;;12.47;100.00;98848.01;135734;1278;25472;-67
2023/06/14 03:06:50;;;;;;;23.30;9.90;;;;;;;12.49;100.00;98851.91;135758;1278;22524;-67
2023/06/14 03:09:52;;;;;;;29.10;11.20;;;;;;;12.51;100.00;98849.14;135754;1259;22632;-67
2023/06/14 03:12:55;;;;;;;;;;;;;;;12.53;100.00;98855.13;135744;1278;24657;-67
2023/06/14 03:15:57;;;;;;;25.30;9.60;;;;;;;12.61;100.00;98853.91;135771;1278;22542;-67
2023/06/14 03:18:59;;;;;;;;;;;;;;;12.64;100.00;98851.55;135768;1278;22498;-69
2023/06/14 03:22:02;;;;;;;24.10;9.40;;;;;;;12.78;100.00;98847.11;135762;1259;22523;-69
2023/06/14 03:25:05;;;;;;;24.10;9.60;;;;;;;12.85;100.00;98847.31;135787;1259;24350;-68
2023/06/14 03:28:07;;;;;;;23.70;9.30;;;;;;;12.86;100.00;98841.48;135781;1278;25229;-68
2023/06/14 03:31:10;;;;;;;;;;;;;;;12.86;100.00;98845.13;135748;1278;22554;-62
2023/06/14 03:34:13;;;;;;;24.30;8.70;;;;;;;12.92;100.00;98846.31;135749;1278;22531;-63
2023/06/14 03:37:29;;;;;;;21.90;8.80;;;;;;;12.93;100.00;98849.04;135750;1278;24238;-67
2023/06/14 03:40:32;;;;;;;;;;;;;;;12.96;100.00;98853.23;135792;1278;22530;-67
2023/06/14 03:43:34;;;;;;;21.70;8.90;;;;;;;12.98;100.00;98852.56;135715;1278;24376;-68
2023/06/14 03:46:37;;;;;;;21.60;8.30;;;;;;;13.13;100.00;98854.30;135749;1278;22526;-67
2023/06/14 03:49:39;;;;;;;;;;;;;;;13.20;100.00;98851.20;135757;1278;22511;-67
2023/06/14 03:52:43;;;;;;;23.10;9.30;;;;;;;13.30;100.00;98848.86;135733;1278;22635;-71
2023/06/14 03:55:46;;;;;;;22.50;9.10;;;;;;;13.32;100.00;98854.72;135789;1278;22993;-69
2023/06/14 03:58:48;;;;;;;;;;;;;;;13.42;100.00;98858.80;135755;1278;25306;-69
2023/06/14 04:01:53;;;;;;;25.10;9.00;;;;;;;13.45;100.00;98862.76;135729;1278;22773;-68
2023/06/14 04:04:56;;;;;;;20.90;8.40;;;;;;;13.64;100.00;98862.27;135763;1278;22528;-69
2023/06/14 04:07:58;;;;;;;22.50;8.30;;;;;;;13.65;100.00;98861.48;135743;1278;22500;-69
2023/06/14 04:11:01;;;;;;;;;;;;;;;13.81;100.00;98863.88;135787;1259;22619;-71
2023/06/14 04:14:03;;;;;;;24.30;8.70;;;;;;;13.88;100.00;98862.30;135786;1278;22552;-72
2023/06/14 04:17:06;;;;;;;;;;;;;;;13.93;100.00;98864.94;135807;1278;22512;-67
2023/06/14 04:20:10;;;;;;;22.50;8.70;;;;;;;13.99;100.00;98863.23;135759;1278;22523;-66
2023/06/14 04:23:13;;;;;;;22.40;8.40;;;;;;;14.08;100.00;98857.83;135736;1278;22530;-67
2023/06/14 04:26:15;;;;;;;23.00;9.10;;;;;;;14.17;100.00;98861.35;135743;1278;25962;-62
2023/06/14 04:29:19;;;;;;;23.90;9.50;;;;;;;14.26;100.00;98862.77;135748;1278;22538;-63
2023/06/14 04:32:21;;;;;;;25.40;8.90;;;;;;;14.25;100.00;98868.02;135766;1278;22530;-66
2023/06/14 04:35:25;;;;;;;25.00;8.80;;;;;;;14.19;100.00;98868.80;135756;1278;22623;-67
2023/06/14 04:38:28;;;;;;;23.90;8.50;;;;;;;14.23;100.00;98870.74;135755;1275;24341;-68
2023/06/14 04:41:30;;;;;;;21.80;9.00;;;;;;;14.19;100.00;98870.15;135761;1278;22545;-68
2023/06/14 04:44:35;;;;;;;22.60;8.70;;;;;;;14.16;100.00;98870.92;135777;1278;22539;-65
2023/06/14 04:47:38;;;;;;;23.70;9.70;;;;;;;14.17;100.00;98868.89;135769;1278;22530;-63
2023/06/14 04:50:43;;;;;;;26.30;9.90;;;;;;;14.24;100.00;98871.18;135687;1278;24208;-68
2023/06/14 04:53:45;;;;;;;23.90;10.10;;;;;;;14.26;100.00;98871.26;135752;1256;22530;-67
2023/06/14 04:56:47;;;;;;;;;;;;;;;14.34;100.00;98867.48;135750;1278;22501;-69
2023/06/14 04:59:54;;;;;;;24.90;9.40;;;;;;;14.25;100.00;98873.99;135752;1278;22523;-69
2023/06/14 05:02:57;;;;;;;23.50;9.20;;;;;;;14.22;100.00;98873.80;135681;1278;22524;-67
2023/06/14 05:06:00;;;;;;;24.50;9.40;;;;;;;14.21;100.00;98877.44;135744;1278;25230;-67
2023/06/14 05:09:02;;;;;;;22.20;9.60;;;;;;;14.15;100.00;98878.54;135732;1278;22548;-70
2023/06/14 05:12:08;;;;;;;;;;;;;;;14.09;100.00;98878.34;135690;1278;22508;-70
2023/06/14 05:15:10;;;;;;;26.10;10.50;;;;;;;14.15;100.00;98880.46;135716;1278;22638;-68
2023/06/14 05:18:13;;;;;;;24.90;10.00;;;;;;;14.25;100.00;98881.88;131671;1278;5369513;-69
2023/06/14 05:21:18;;;;;;;24.70;9.70;;;;;;;14.32;100.00;98884.30;135758;1278;22535;-68
2023/06/14 05:24:20;;;;;;;22.20;10.00;;;;;;;14.38;100.00;98882.47;135730;1278;25330;-67
2023/06/14 05:27:24;;;;;;;23.60;10.10;;;;;;;14.44;100.00;98882.05;135733;1259;24186;-71
2023/06/14 05:30:29;;;;;;;24.30;10.70;;;;;;;14.50;100.00;98881.02;135722;1278;22532;-69
2023/06/14 05:33:31;;;;;;;24.20;10.80;;;;;;;14.52;100.00;98884.59;135745;1278;22653;-69
2023/06/14 05:36:34;;;;;;;;;;;;;;;14.69;100.00;98883.48;135731;1278;25508;-70
2023/06/14 05:39:36;;;;;;;24.70;11.20;;;;;;;14.73;100.00;98885.10;135777;1278;24392;-67
2023/06/14 05:42:39;;;;;;;;;;;;;;;14.76;100.00;98884.71;135746;1259;22523;-68
2023/06/14 05:45:41;;;;;;;25.60;10.50;;;;;;;14.76;100.00;98885.46;135740;1278;22555;-67
2023/06/14 05:48:43;;;;;;;;;;;;;;;14.65;100.00;98888.52;135778;1278;22672;-67
2023/06/14 05:51:46;;;;;;;22.30;10.00;;;;;;;14.55;100.00;98890.48;135697;1278;22553;-66
2023/06/14 05:54:49;;;;;;;;;;;;;;;14.52;100.00;98890.70;135737;1278;22534;-66
2023/06/14 05:57:51;;;;;;;24.40;10.70;;;;;;;14.60;100.00;98892.10;135705;1278;22525;-63
2023/06/14 06:00:54;;;;;;;23.60;10.30;;;;;;;14.65;100.00;98892.58;135674;1278;22641;-67
2023/06/14 06:03:56;;;;;;;26.80;10.60;;;;;;;14.66;100.00;98889.31;135638;1278;22554;-67
2023/06/14 06:06:59;;;;;;;25.40;10.60;;;;;;;14.82;100.00;98890.22;135745;1275;22523;-69
2023/06/14 06:10:04;;;;;;;25.60;11.10;;;;;;;14.89;100.00;98890.92;135719;1278;22542;-68
2023/06/14 06:13:07;;;;;;;;;;;;;;;14.96;100.00;98891.81;135761;1278;22504;-69
2023/06/14 06:16:10;;;;;;;;;;;;;;;15.05;100.00;98896.02;135733;1278;24661;-68
2023/06/14 06:19:12;;;;;;;24.80;11.00;;;;;;;15.15;100.00;98894.16;135723;1278;24323;-68
2023/06/14 06:22:14;;;;;;;;;;;;;;;15.15;100.00;98894.69;135706;1278;22610;-67
2023/06/14 06:25:18;;;;;;;22.10;9.90;;;;;;;15.14;100.00;98892.86;135703;1278;22532;-68
2023/06/14 06:28:21;;;;;;;25.10;10.80;;;;;;;15.12;100.00;98896.15;135696;1278;22575;-69
2023/06/14 06:31:23;;;;;;;24.20;11.10;;;;;;;15.08;100.00;98892.77;135721;1278;22530;-67
2023/06/14 06:34:26;;;;;;;;;;;;;;;15.15;100.00;98892.80;135687;1278;22519;-70
2023/06/14 06:37:28;;;;;;;24.90;11.20;;;;;;;15.16;100.00;98896.59;135680;1278;22526;-69
2023/06/14 06:40:30;;;;;;;;;;;;;;;15.37;100.00;98902.02;135696;1278;22767;-68
2023/06/14 06:43:33;;;;;;;25.30;11.20;;;;;;;15.51;100.00;98906.19;135681;1278;22534;-72
2023/06/14 06:46:39;;;;;;;;;;;;;;;15.56;100.00;98908.02;135730;1259;22497;-66
2023/06/14 06:49:42;;;;;;;24.00;10.70;;;;;;;15.58;100.00;98908.90;135660;1278;22520;-70
2023/06/14 06:52:45;;;;;;;;;;;;;;;15.68;100.00;98909.36;135693;1278;22536;-72
2023/06/14 06:55:47;;;;;;;26.40;12.20;;;;;;;15.62;100.00;98909.33;135742;1278;22549;-68
2023/06/14 06:58:50;;;;;;;;;;;;;;;15.61;100.00;98912.44;135727;1278;22511;-69
2023/06/14 07:01:52;;;;;;;25.40;11.90;;;;;;;15.74;100.00;98916.45;135600;1275;22623;-69
2023/06/14 07:04:55;;;;;;;;;;;;;;;15.85;100.00;98923.17;135699;1278;22504;-69
2023/06/14 07:07:57;;;;;;;;;;;;;;;15.86;100.00;98925.40;135728;1278;22504;-69
2023/06/14 07:11:00;;;;;;;;;;;;;;;15.89;100.00;98929.23;135696;1278;26583;-66
2023/06/14 07:14:02;;;;;;;;;;;;;;;15.97;100.00;98929.81;135688;1278;24384;-70
2023/06/14 07:17:05;;;;;;;;;;;;;;;16.04;100.00;98933.49;135696;1278;22538;-71
2023/06/14 07:20:11;;;;;;;;;;;;;;;16.29;100.00;98935.30;135702;1278;22512;-69
2023/06/14 07:23:14;;;;;;;;;;;;;;;16.39;100.00;98938.54;135697;1278;22518;-68
2023/06/14 07:26:16;;;;;;;;;;;;;;;16.44;100.00;98935.48;135672;1275;22501;-68
2023/06/14 07:29:19;;;;;;;;;;;;;;;16.56;100.00;98937.48;135682;1259;23142;-68
2023/06/14 07:32:22;;;;;;;;;;;;;;;16.62;100.00;98939.05;135726;1278;22508;-70
2023/06/14 07:35:24;;;;;;;;;;;;;;;16.70;100.00;98940.20;135674;1278;22504;-69
2023/06/14 07:38:26;;;;;;;;;;;;;;;16.90;100.00;98938.86;135713;1278;22534;-68
2023/06/14 07:41:29;;;;;;;;;;;;;;;17.08;100.00;98938.55;135715;1278;22512;-68
2023/06/14 07:44:32;;;;;;;;;;;;;;;17.08;100.00;98945.30;135713;1278;22553;-68
2023/06/14 07:47:34;;;;;;;;;;;;;;;17.22;100.00;98946.23;135683;1278;22507;-72
2023/06/14 07:50:37;;;;;;;;;;;;;;;17.40;100.00;98947.82;135703;1278;22499;-70
2023/06/14 07:53:40;;;;;;;;;;;;;;;17.53;100.00;98945.83;135679;1278;22515;-69
2023/06/14 07:56:44;;;;;;;;;;;;;;;17.62;100.00;98947.88;135648;1278;24200;-70
2023/06/14 07:59:47;;;;;;;;;;;;;;;17.57;100.00;98950.04;135656;1278;22520;-70
2023/06/14 08:02:58;;;;;;;;;;;;;;;17.76;100.00;98947.31;135664;1278;22508;-68
2023/06/14 08:06:01;;;;;;;;;;;;;;;18.04;100.00;98951.05;135676;1259;22518;-69
2023/06/14 08:09:04;;;;;;;;;;;;;;;18.30;100.00;98949.77;135687;1278;22508;-69
2023/06/14 08:12:07;;;;;;;;;;;;;;;18.45;100.00;98953.08;135704;1278;22723;-69
2023/06/14 08:15:10;;;;;;;;;;;;;;;18.49;100.00;98947.55;135707;1278;22505;-69
2023/06/14 08:18:12;;;;;;;;;;;;;;;18.44;100.00;98949.36;135721;1278;22487;-68
2023/06/14 08:21:15;;;;;;;;;;;;;;;18.30;100.00;98943.42;135656;1278;24234;-68
2023/06/14 08:24:18;;;;;;;;;;;;;;;18.21;100.00;98947.24;135661;1278;22504;-68
2023/06/14 08:27:22;;;;;;;;;;;;;;;18.06;100.00;98944.00;135671;1278;22504;-68
2023/06/14 08:30:25;;;;;;;;;;;;;;;17.82;100.00;98947.19;135682;1262;22624;-69
2023/06/14 08:33:27;;;;;;;;;;;;;;;17.64;100.00;98947.85;135718;1278;22500;-70
2023/06/14 08:36:29;;;;;;;;;;;;;;;17.46;100.00;98950.14;135692;1278;22497;-67
2023/06/14 08:39:32;;;;;;;;;;;;;;;17.32;100.00;98953.30;135670;1278;22644;-67
2023/06/14 08:42:34;;;;;;;;;;;;;;;17.23;100.00;98953.38;135685;1278;22565;-70
2023/06/14 08:45:37;;;;;;;;;;;;;;;17.10;100.00;98953.79;135671;1278;25464;-70
2023/06/14 08:48:39;;;;;;;;;;;;;;;17.08;100.00;98955.54;135688;1278;22617;-68
2023/06/14 08:51:43;;;;;;;;;;;;;;;17.00;100.00;98954.30;135649;1259;22644;-68
2023/06/14 08:54:48;;;;;;;;;;;;;;;16.99;100.00;98954.55;135677;1259;22512;-68
2023/06/14 08:57:50;;;;;;;;;;;;;;;16.85;100.00;98956.79;135696;1278;22538;-67
2023/06/14 09:00:53;;;;;;;;;;;;;;;16.83;100.00;98959.75;135623;1278;22535;-68
2023/06/14 09:03:57;;;;;;;;;;;;;;;16.75;100.00;98960.78;135692;1278;22520;-68
2023/06/14 09:06:59;;;;;;;;;;;;;;;16.71;100.00;98961.44;135681;1278;22504;-68
2023/06/14 09:10:02;;;;;;;;;;;;;;;16.70;100.00;98959.99;135695;1278;22538;-69
2023/06/14 09:13:04;;;;;;;;;;;;;;;16.82;100.00;98962.69;135662;1272;25207;-68
2023/06/14 09:16:06;;;;;;;;;;;;;;;16.85;100.00;98965.98;135661;1278;25297;-67
2023/06/14 09:19:09;;;;;;;;;;;;;;;16.97;100.00;98963.02;135712;1278;22523;-68
2023/06/14 09:22:11;;;;;;;;;;;;;;;17.04;100.00;98963.33;135698;1278;22508;-69
2023/06/14 09:25:15;;;;;;;;;;;;;;;17.07;100.00;98960.02;135676;1278;22541;-67
2023/06/14 09:28:17;;;;;;;;;;;;;;;17.23;100.00;98956.92;135680;1278;22502;-67
2023/06/14 09:31:20;;;;;;;;;;;;;;;17.18;100.00;98957.48;135705;1278;22502;-67
2023/06/14 09:34:23;;;;;;;;;;;;;;;17.17;100.00;98960.46;135696;1278;23392;-67
2023/06/14 09:37:26;;;;;;;;;;;;;;;17.18;100.00;98961.38;135709;1278;25374;-68
2023/06/14 09:40:28;;;;;;;;;;;;;;;17.24;100.00;98962.52;135657;1278;24245;-67
2023/06/14 09:43:33;;;;;;;;;;;;;;;17.41;100.00;98962.77;135682;1278;24242;-68
2023/06/14 09:46:36;;;;;;;;;;;;;;;17.44;100.00;98964.26;135686;1278;22512;-67
2023/06/14 09:49:38;;;;;;;;;;;;;;;17.49;100.00;98962.43;135663;1278;22621;-68
2023/06/14 09:52:41;;;;;;;;;;;;;;;17.44;100.00;98961.27;135710;1278;22710;-67
2023/06/14 09:55:43;;;;;;;;;;;;;;;17.34;100.00;98962.89;135673;1276;22517;-68
2023/06/14 09:58:46;;;;;;;;;;;;;;;17.58;100.00;98962.01;135724;1260;24330;-69
2023/06/14 10:01:48;;;;;;;;;;;;;;;17.62;100.00;98964.84;135635;1259;22508;-68
2023/06/14 10:04:50;;;;;;;;;;;;;;;17.94;100.00;98964.20;135698;1278;22613;-66
2023/06/14 10:07:53;;;;;;;;;;;;;;;18.03;100.00;98959.16;135652;1278;22619;-68
2023/06/14 10:10:55;;;;;;;;;;;;;;;17.99;100.00;98961.46;135670;1278;22511;-67
2023/06/14 10:13:58;;;;;;;;;;;;;;;17.92;100.00;98960.09;135652;1278;22635;-67
2023/06/14 10:17:00;;;;;;;;;;;;;;;17.90;100.00;98960.62;135719;1278;22499;-68
2023/06/14 10:20:03;;;;;;;;;;;;;;;17.86;100.00;98959.20;135690;1278;22560;-69
2023/06/14 10:23:05;;;;;;;;;;;;;;;17.97;100.00;98955.71;135691;1278;22516;-71
2023/06/14 10:26:08;;;;;;;;;;;;;;;18.08;100.00;98954.41;135659;1278;24382;-70
2023/06/14 10:29:10;;;;;;;;;;;;;;;18.09;100.00;98953.13;135683;1278;22517;-67
2023/06/14 10:32:12;;;;;;;;;;;;;;;18.01;100.00;98947.77;135670;1278;23204;-66
2023/06/14 10:35:15;;;;;;;;;;;;;;;17.95;100.00;98947.77;135673;1278;22507;-68
2023/06/14 10:38:17;;;;;;;;;;;;;;;17.74;100.00;98950.14;135684;1278;22512;-67
2023/06/14 10:41:20;;;;;;;;;;;;;;;17.58;100.00;98950.02;135735;1278;24250;-67
2023/06/14 10:44:22;;;;;;;;;;;;;;;17.38;100.00;98949.08;135693;1278;22511;-69
2023/06/14 10:47:25;;;;;;;;;;;;;;;17.27;100.00;98948.45;135672;1278;22535;-71
2023/06/14 10:50:28;;;;;;;;;;;;;;;17.15;100.00;98946.33;135679;1278;22613;-67
2023/06/14 10:53:31;;;;;;;;;;;;;;;17.06;100.00;98945.46;135710;1278;22518;-70
2023/06/14 10:56:34;;;;;;;;;;;;;;;17.01;100.00;98950.63;135711;1278;22538;-67
2023/06/14 10:59:37;;;;;;;;;;;;;;;16.98;100.00;98949.69;135601;1278;22515;-66
2023/06/14 11:02:39;;;;;;;;;;;;;;;16.94;100.00;98949.84;135694;1278;22539;-68
2023/06/14 11:05:42;;;;;;;;;;;;;;;16.79;100.00;98950.05;135626;1278;22519;-69
2023/06/14 11:08:44;;;;;;;;;;;;;;;16.72;100.00;98950.95;135704;1278;22599;-71
2023/06/14 11:11:47;;;;;;;;;;;;;;;16.55;100.00;98951.83;135687;1278;22527;-68
2023/06/14 11:14:50;;;;;;;;;;;;;;;16.54;100.00;98950.53;135702;1278;22512;-68
2023/06/14 11:17:53;;;;;;;;;;;;;;;16.62;100.00;98947.05;135663;1278;22729;-69
2023/06/14 11:20:55;;;;;;;;;;;;;;;16.60;100.00;98947.92;135689;1278;22512;-67
2023/06/14 11:23:58;;;;;;;;;;;;;;;16.79;100.00;98947.77;135696;1278;22512;-69
2023/06/14 11:27:00;;;;;;;;;;;;;;;16.87;100.00;98944.08;135727;1278;22582;-68
2023/06/14 11:30:03;;;;;;;;;;;;;;;16.93;100.00;98943.23;135735;1278;25313;-68
2023/06/14 11:33:05;;;;;;;;;;;;;;;17.10;100.00;98940.48;135648;1278;23352;-68
2023/06/14 11:36:08;;;;;;;;;;;;;;;17.18;100.00;98938.23;135696;1278;24218;-70
2023/06/14 11:39:11;;;;;;;;;;;;;;;17.38;100.00;98935.30;135665;1278;22516;-66
2023/06/14 11:42:13;;;;;;;;;;;;;;;17.43;100.00;98931.65;135704;1278;22525;-67
2023/06/14 11:45:16;;;;;;;;;;;;;;;17.47;100.00;98934.85;135661;1278;22529;-68
2023/06/14 11:48:21;;;;;;;;;;;;;;;17.51;100.00;98932.23;135700;1278;22494;-68
2023/06/14 11:51:23;;;;;;;;;;;;;;;17.49;100.00;98932.03;135689;1278;22514;-69
2023/06/14 11:54:25;;;;;;;;;;;;;;;17.54;100.00;98935.14;135703;1261;22506;-69
2023/06/14 11:57:28;;;;;;;;;;;;;;;17.71;100.00;98932.02;135676;1278;22508;-67
2023/06/14 12:00:30;;;;;;;;;;;;;;;17.77;100.00;98931.54;135639;1278;22503;-67
2023/06/14 12:03:33;;;;;;;;;;;;;;;17.78;100.00;98930.31;135660;1278;22504;-68
2023/06/14 12:06:39;;;;;;;;;;;;;;;17.76;100.00;98930.15;135694;1278;22510;-68
2023/06/14 12:09:43;;;;;;;;;;;;;;;17.79;100.00;98930.63;135682;1278;22531;-67
2023/06/14 12:12:45;;;;;;;;;;;;;;;17.87;100.00;98921.76;135735;1278;22528;-68
2023/06/14 12:15:48;;;;;;;;;;;;;;;18.13;100.00;98915.61;135706;1278;22547;-67
2023/06/14 12:18:51;;;;;;;;;;;;;;;18.39;100.00;98912.31;135704;1278;23868;-67
2023/06/14 12:21:54;;;;;;;;;;;;;;;18.70;100.00;98914.64;135714;1278;22525;-68
2023/06/14 12:24:57;;;;;;;;;;;;;;;19.05;100.00;98916.67;135698;1278;22511;-70
2023/06/14 12:27:59;;;;;;;;;;;;;;;18.97;100.00;98919.02;135735;1278;22519;-72
2023/06/14 12:31:02;;;;;;;;;;;;;;;18.74;100.00;98920.77;135712;1278;24193;-69
2023/06/14 12:34:04;;;;;;;;;;;;;;;18.55;100.00;98922.19;135707;1278;22934;-69
2023/06/14 12:37:07;;;;;;;;;;;;;;;18.41;100.00;98924.91;135704;1278;22507;-68
2023/06/14 12:40:11;;;;;;;;;;;;;;;18.38;100.00;98925.87;135737;1278;22511;-68
2023/06/14 12:43:13;;;;;;;;;;;;;;;18.26;100.00;98920.44;135691;1278;22551;-68
2023/06/14 12:46:16;;;;;;;;;;;;;;;18.31;99.81;98921.91;135735;1268;22508;-65
2023/06/14 12:49:20;;;;;;;;;;;;;;;18.29;99.69;98920.29;135681;1278;22590;-65
2023/06/14 12:52:22;;;;;;;;;;;;;;;18.30;100.00;98915.29;135732;1278;22516;-68
2023/06/14 12:55:25;;;;;;;;;;;;;;;18.41;100.00;98916.79;135741;1278;22540;-71
2023/06/14 12:58:27;;;;;;;;;;;;;;;18.40;99.37;98912.10;135634;1278;22609;-69
2023/06/14 13:01:29;;;;;;;;;;;;;;;18.17;100.00;98915.38;135681;1278;22531;-71
2023/06/14 13:04:32;;;;;;;;;;;;;;;17.99;99.92;98918.45;135752;1278;22500;-67
2023/06/14 13:07:35;;;;;;;;;;;;;;;17.86;100.00;98919.74;135739;1278;22494;-70
2023/06/14 13:10:37;;;;;;;;;;;;;;;17.64;100.00;98922.45;135698;1278;22508;-70
2023/06/14 13:13:40;;;;;;;;;;;;;;;17.52;100.00;98926.26;135731;1268;24191;-69
2023/06/14 13:16:42;;;;;;;;;;;;;;;17.50;100.00;98926.31;135743;1278;22529;-69
2023/06/14 13:19:45;;;;;;;;;;;;;;;17.48;100.00;98929.48;135703;1273;23377;-70
2023/06/14 13:22:47;;;;;;;;;;;;;;;17.31;100.00;98929.70;135727;1278;22500;-68
2023/06/14 13:25:51;;;;;;;;;;;;;;;17.16;100.00;98928.84;135697;1278;22501;-72
2023/06/14 13:28:53;;;;;;;;;;;;;;;17.11;100.00;98926.09;135746;1278;22504;-68
2023/06/14 13:31:56;;;;;;;;;;;;;;;17.15;100.00;98926.70;135717;1278;22516;-69
2023/06/14 13:34:59;;;;;;;;;;;;;;;17.10;100.00;98926.54;135744;1278;22529;-69
2023/06/14 13:38:01;;;;;;;;;;;;;;;17.11;100.00;98925.23;135751;1278;22512;-67
2023/06/14 13:41:04;;;;;;;;;;;;;;;17.03;100.00;98923.81;135760;1278;22511;-67
2023/06/14 13:44:06;;;;;;;;;;;;;;;16.98;100.00;98916.86;135722;1278;22514;-70
2023/06/14 13:47:08;;;;;;;;;;;;;;;17.09;100.00;98919.09;135717;1269;22505;-69
2023/06/14 13:50:11;;;;;;;;;;;;;;;17.19;100.00;98914.15;135722;1278;22504;-68
2023/06/14 13:53:14;;;;;;;;;;;;;;;17.34;100.00;98918.17;135704;1278;22511;-67
2023/06/14 13:56:16;;;;;;;;;;;;;;;17.59;100.00;98915.27;135746;1278;22498;-66
2023/06/14 13:59:18;;;;;;;;;;;;;;;17.85;100.00;98912.55;135689;1278;22498;-68
2023/06/14 14:02:21;;;;;;;;;;;;;;;17.93;100.00;98913.27;135756;1278;22532;-68
2023/06/14 14:05:28;;;;;;;;;;;;;;;18.04;100.00;98914.12;135738;1278;22528;-68
2023/06/14 14:08:31;;;;;;;;;;;;;;;18.13;100.00;98914.87;135756;1260;22520;-69
2023/06/14 14:11:33;;;;;;;;;;;;;;;18.39;100.00;98915.14;135716;1278;22525;-68
2023/06/14 14:14:36;;;;;;;;;;;;;;;18.66;100.00;98917.98;135774;1278;23494;-69
2023/06/14 14:17:38;;;;;;;;;;;;;;;18.82;100.00;98917.55;135771;1278;22533;-68
2023/06/14 14:20:41;;;;;;;;;;;;;;;18.98;100.00;98918.56;135781;1278;22516;-68
2023/06/14 14:23:43;;;;;;;;;;;;;;;19.35;100.00;98921.63;135753;1278;24354;-66
2023/06/14 14:26:49;;;;;;;;;;;;;;;19.53;100.00;98917.56;135713;1258;24331;-67
2023/06/14 14:29:51;;;;;;;;;;;;;;;19.41;100.00;98914.13;135760;1264;23284;-70
2023/06/14 14:32:54;;;;;;;;;;;;;;;19.26;100.00;98912.88;135703;1278;22497;-68
2023/06/14 14:35:56;;;;;;;;;;;;;;;19.28;100.00;98908.98;135742;1278;25361;-69
2023/06/14 14:38:59;;;;;;;;;;;;;;;19.34;100.00;98908.23;135762;1278;25221;-68
2023/06/14 14:42:01;;;;;;;;;;;;;;;19.22;100.00;98910.63;135742;1276;22520;-68
2023/06/14 14:45:04;;;;;;;;;;;;;;;19.08;100.00;98907.23;135768;1278;22515;-67
2023/06/14 14:48:06;;;;;;;;;;;;;;;19.07;100.00;98908.18;135760;1278;22524;-68